Time;durP1;ratioP1;P1;durP2;ratioP2;P2;SDS_P1;SDS_P2;PMS_P1;PMS_P2;Temp;Humidity;BMP_temperature;BMP_pressure;BME280_temperature;BME280_humidity;BME280_pressure;Samples;Min_cycle;Max_cycle;Signal;HPM_P1;HPM_P2
2023/01/03 00:00:15;;;;;;;23.00;11.93;;;6.00;83.10;;;;;;5008026;28;20267;-80
2023/01/03 00:02:41;;;;;;;24.27;13.23;;;5.90;82.80;;;;;;5006158;28;20221;-79
2023/01/03 00:05:07;;;;;;;24.93;12.27;;;5.90;82.90;;;;;;5015513;28;20688;-80
2023/01/03 00:07:33;;;;;;;21.23;12.23;;;5.90;82.80;;;;;;4986203;28;20189;-79
2023/01/03 00:10:05;;;;;;;19.17;12.83;;;5.90;83.00;;;;;;5007427;28;20180;-79
2023/01/03 00:12:31;;;;;;;28.17;13.93;;;5.80;83.00;;;;;;5007745;28;20189;-79
2023/01/03 00:14:58;;;;;;;27.77;14.47;;;5.80;82.90;;;;;;5011298;28;20184;-79
2023/01/03 00:17:24;;;;;;;28.77;14.93;;;5.80;83.50;;;;;;5009094;28;20196;-79
2023/01/03 00:19:50;;;;;;;24.43;14.23;;;5.80;83.40;;;;;;4993144;28;20232;-79
2023/01/03 00:22:16;;;;;;;26.90;14.03;;;5.80;83.80;;;;;;5006443;28;20268;-79
2023/01/03 00:24:44;;;;;;;28.03;15.27;;;5.80;84.10;;;;;;5006343;28;20185;-79
2023/01/03 00:27:10;;;;;;;28.53;16.03;;;5.80;84.90;;;;;;5006393;28;20185;-79
2023/01/03 00:29:37;;;;;;;31.80;14.67;;;5.70;84.40;;;;;;5008276;28;20188;-79
2023/01/03 00:32:03;;;;;;;28.27;14.73;;;5.70;84.50;;;;;;5007211;28;20642;-79
2023/01/03 00:34:29;;;;;;;31.37;15.37;;;5.70;84.30;;;;;;5006629;28;20271;-79
2023/01/03 00:36:55;;;;;;;24.70;14.33;;;5.70;83.60;;;;;;5006992;28;20626;-79
2023/01/03 00:39:21;;;;;;;29.07;14.33;;;5.60;83.80;;;;;;5007358;28;20189;-79
2023/01/03 00:41:47;;;;;;;27.40;15.27;;;5.60;83.40;;;;;;5006370;28;20559;-79
2023/01/03 00:44:13;;;;;;;28.00;13.70;;;5.60;83.30;;;;;;5007288;28;20189;-79
2023/01/03 00:46:39;;;;;;;33.43;14.57;;;5.60;83.60;;;;;;5005496;28;20188;-79
2023/01/03 00:49:05;;;;;;;36.13;15.57;;;5.60;83.90;;;;;;5004773;28;20866;-78
2023/01/03 00:51:33;;;;;;;32.30;16.80;;;5.70;84.70;;;;;;5007420;28;20265;-79
2023/01/03 00:54:00;;;;;;;32.60;17.83;;;5.70;84.90;;;;;;5006992;28;20260;-79
2023/01/03 00:56:29;;;;;;;35.80;17.93;;;5.70;85.00;;;;;;5006543;28;20652;-79
2023/01/03 00:58:55;;;;;;;35.93;20.17;;;5.60;85.00;;;;;;5006872;28;20173;-79
2023/01/03 01:01:29;;;;;;;41.07;19.13;;;5.60;85.00;;;;;;5007347;28;20255;-79
2023/01/03 01:03:59;;;;;;;47.13;19.53;;;5.60;84.60;;;;;;5010988;28;20219;-79
2023/01/03 01:06:27;;;;;;;36.27;19.60;;;5.50;83.80;;;;;;5007479;28;20638;-79
2023/01/03 01:08:55;;;;;;;42.70;19.03;;;5.50;83.80;;;;;;5006249;28;20617;-79
2023/01/03 01:11:21;;;;;;;24.50;15.20;;;5.50;84.20;;;;;;5006893;28;20642;-79
2023/01/03 01:13:48;;;;;;;26.60;14.63;;;5.50;84.40;;;;;;5003875;28;20181;-79
2023/01/03 01:16:17;;;;;;;30.93;15.57;;;5.40;84.60;;;;;;5006183;28;20193;-79
2023/01/03 01:18:45;;;;;;;27.83;14.30;;;5.40;84.20;;;;;;5006219;28;20581;-79
2023/01/03 01:21:16;;;;;;;26.17;15.00;;;5.40;84.40;;;;;;4986430;28;20975;-79
2023/01/03 01:23:42;;;;;;;25.43;13.43;;;5.40;84.10;;;;;;5005293;28;20220;-79
2023/01/03 01:26:12;;;;;;;28.33;13.53;;;5.40;84.20;;;;;;5013771;28;20689;-79
2023/01/03 01:28:38;;;;;;;37.70;15.50;;;5.40;84.10;;;;;;5005838;28;20191;-79
2023/01/03 01:31:05;;;;;;;26.43;13.23;;;5.40;84.40;;;;;;5005350;28;20185;-79
2023/01/03 01:33:34;;;;;;;25.87;13.43;;;5.30;84.30;;;;;;5006746;28;20193;-79
2023/01/03 01:36:18;;;;;;;25.00;13.60;;;5.30;84.20;;;;;;5007312;28;20196;-79
2023/01/03 01:38:46;;;;;;;28.37;14.80;;;5.30;84.20;;;;;;5006083;28;20189;-79
2023/01/03 01:41:15;;;;;;;36.27;18.50;;;5.30;84.30;;;;;;4999159;28;20228;-80
2023/01/03 01:46:41;;;;;;;53.53;20.80;;;5.30;84.00;;;;;;4998630;28;20234;-80
2023/01/03 01:49:14;;;;;;;30.47;18.63;;;5.30;84.10;;;;;;5007069;28;20193;-80
2023/01/03 01:51:40;;;;;;;44.53;19.97;;;5.30;84.20;;;;;;5005098;28;20185;-80
2023/01/03 01:54:06;;;;;;;33.60;18.33;;;5.20;84.10;;;;;;5005184;28;20189;-79
2023/01/03 01:56:45;;;;;;;30.67;18.73;;;5.20;84.30;;;;;;5005823;28;20574;-79
2023/01/03 01:59:12;;;;;;;42.97;18.20;;;5.20;84.30;;;;;;5002161;28;20284;-79
2023/01/03 02:01:40;;;;;;;39.43;20.37;;;5.20;84.60;;;;;;5005764;28;20262;-79
2023/01/03 02:04:11;;;;;;;36.03;20.07;;;5.20;84.40;;;;;;5006546;28;20286;-79
2023/01/03 02:06:38;;;;;;;38.53;18.57;;;5.20;84.50;;;;;;5006297;28;20207;-80
2023/01/03 02:09:04;;;;;;;39.47;17.93;;;5.20;84.50;;;;;;5005023;28;20177;-80
2023/01/03 02:11:39;;;;;;;36.53;17.23;;;5.20;84.40;;;;;;5004005;28;20180;-79
2023/01/03 02:14:29;;;;;;;38.43;18.47;;;5.20;84.20;;;;;;5005920;28;20199;-79
2023/01/03 02:16:58;;;;;;;32.90;16.67;;;5.20;84.20;;;;;;4999365;28;20570;-79
2023/01/03 02:20:00;;;;;;;39.27;19.00;;;5.10;84.10;;;;;;5006236;28;20188;-79
2023/01/03 02:22:26;;;;;;;36.97;19.00;;;5.10;83.90;;;;;;5005112;28;20307;-79
2023/01/03 02:25:01;;;;;;;39.97;21.07;;;5.10;84.10;;;;;;5004567;28;20184;-79
2023/01/03 02:27:47;;;;;;;40.00;22.07;;;5.10;84.40;;;;;;5004433;28;20193;-78
2023/01/03 02:30:16;;;;;;;40.47;20.47;;;5.10;84.20;;;;;;4968719;28;20201;-79
2023/01/03 02:33:12;;;;;;;46.20;23.80;;;5.00;84.30;;;;;;5005790;28;20701;-78
2023/01/03 02:36:18;;;;;;;44.80;22.57;;;5.00;84.20;;;;;;4995991;28;20267;-78
2023/01/03 02:39:00;;;;;;;53.40;24.43;;;5.00;84.50;;;;;;5004512;28;20654;-79
2023/01/03 02:42:56;;;;;;;48.03;24.10;;;4.90;84.20;;;;;;5005498;28;20219;-78
2023/01/03 02:44:45;;;;;;;56.17;25.20;;;4.90;84.40;;;;;;5004306;28;20193;-79
2023/01/03 02:47:14;;;;;;;52.00;25.13;;;4.90;84.80;;;;;;5003128;28;21464;-79
2023/01/03 02:49:50;;;;;;;51.23;25.00;;;4.80;84.80;;;;;;5004399;28;20185;-77
2023/01/03 02:52:27;;;;;;;58.13;26.60;;;4.80;84.80;;;;;;5005599;28;20661;-77
2023/01/03 02:55:05;;;;;;;54.47;23.20;;;4.80;84.70;;;;;;4993135;28;20260;-79
2023/01/03 02:57:42;;;;;;;48.60;23.00;;;4.80;84.50;;;;;;5001224;28;20283;-78
2023/01/03 03:00:12;;;;;;;44.20;22.00;;;4.80;84.80;;;;;;5008432;28;20208;-77
2023/01/03 03:02:44;;;;;;;44.73;22.87;;;4.80;85.00;;;;;;5007336;28;20639;-77
2023/01/03 03:05:16;;;;;;;35.27;19.77;;;4.70;85.00;;;;;;5008686;28;20243;-78
2023/01/03 03:07:42;;;;;;;48.83;20.37;;;4.70;85.10;;;;;;5015151;28;20176;-78
2023/01/03 03:13:13;;;;;;;41.17;19.60;;;4.70;85.20;;;;;;4992786;28;20208;-78
2023/01/03 03:16:03;;;;;;;38.80;20.00;;;4.70;85.10;;;;;;5006388;28;20306;-78
2023/01/03 03:18:38;;;;;;;36.93;18.47;;;4.70;85.00;;;;;;5001826;28;20204;-77
2023/01/03 03:26:43;;;;;;;29.43;15.73;;;4.70;85.30;;;;;;5011053;28;20261;-78
2023/01/03 03:29:15;;;;;;;25.07;15.63;;;4.70;85.30;;;;;;5007399;28;20584;-78
2023/01/03 03:31:45;;;;;;;25.30;14.43;;;4.60;85.00;;;;;;5007176;28;20291;-78
2023/01/03 03:34:15;;;;;;;25.23;14.33;;;4.60;85.00;;;;;;5011982;28;20193;-78
2023/01/03 03:37:01;;;;;;;30.90;14.37;;;4.60;85.10;;;;;;5000475;28;20185;-78
2023/01/03 03:45:05;;;;;;;31.43;17.17;;;4.60;85.10;;;;;;5006126;28;20195;-77
2023/01/03 03:47:49;;;;;;;32.93;17.87;;;4.50;84.90;;;;;;5004472;28;20216;-77
2023/01/03 03:50:48;;;;;;;31.10;17.70;;;4.50;84.70;;;;;;5001105;28;20266;-77
2023/01/03 03:53:17;;;;;;;37.30;18.70;;;4.50;84.80;;;;;;4927901;29;20689;-78
2023/01/03 03:55:57;;;;;;;45.70;19.53;;;4.50;85.10;;;;;;4944574;28;20274;-78
2023/01/03 03:58:29;;;;;;;44.93;21.70;;;4.40;84.80;;;;;;4945570;28;20202;-78
2023/01/03 04:00:56;;;;;;;44.60;22.23;;;4.40;85.00;;;;;;4948020;28;20199;-80
2023/01/03 04:03:23;;;;;;;41.57;23.47;;;4.40;85.00;;;;;;4964040;28;20589;-78
2023/01/03 04:06:03;;;;;;;53.10;25.00;;;4.40;85.10;;;;;;4951241;28;20581;-79
2023/01/03 04:08:29;;;;;;;58.10;25.97;;;4.40;84.80;;;;;;4948624;28;20202;-79
2023/01/03 04:11:04;;;;;;;52.73;25.53;;;4.30;84.90;;;;;;4947199;28;20205;-79
2023/01/03 04:13:37;;;;;;;62.03;27.70;;;4.30;85.10;;;;;;4953074;28;20201;-76
2023/01/03 04:16:04;;;;;;;62.67;27.70;;;4.20;84.90;;;;;;4950606;28;20226;-80
2023/01/03 04:18:30;;;;;;;66.03;26.93;;;4.20;85.00;;;;;;4945561;28;20194;-79
2023/01/03 04:20:56;;;;;;;64.30;29.00;;;4.20;85.10;;;;;;4946455;28;20636;-78
2023/01/03 04:23:22;;;;;;;61.93;28.03;;;4.20;85.10;;;;;;4945506;28;20316;-79
2023/01/03 04:25:50;;;;;;;49.40;27.70;;;4.20;85.10;;;;;;4953531;28;20744;-79
2023/01/03 04:28:17;;;;;;;62.23;27.67;;;4.20;85.10;;;;;;4946814;28;20715;-79
2023/01/03 04:30:43;;;;;;;59.00;26.00;;;4.20;85.10;;;;;;5011967;28;20189;-79
2023/01/03 04:33:09;;;;;;;47.43;25.40;;;4.20;85.20;;;;;;5005981;28;20180;-80
2023/01/03 04:35:35;;;;;;;55.90;26.43;;;4.10;85.10;;;;;;5015028;28;20684;-79
2023/01/03 04:38:01;;;;;;;49.30;25.33;;;4.20;85.30;;;;;;4989368;28;20185;-79
2023/01/03 04:40:27;;;;;;;46.37;24.23;;;4.10;85.40;;;;;;5006487;28;20276;-79
2023/01/03 04:45:38;;;;;;;49.50;24.47;;;4.10;85.30;;;;;;5007123;28;20207;-79
2023/01/03 04:48:04;;;;;;;55.43;25.53;;;4.10;85.40;;;;;;5007153;28;20178;-79
2023/01/03 04:50:30;;;;;;;59.53;24.97;;;4.00;85.60;;;;;;5003296;28;20586;-80
2023/01/03 04:52:56;;;;;;;40.50;23.03;;;4.00;85.60;;;;;;5010257;28;20631;-79
2023/01/03 04:55:22;;;;;;;45.37;23.47;;;4.00;85.60;;;;;;5006483;28;20925;-79
2023/01/03 04:57:47;;;;;;;58.03;26.50;;;4.00;85.60;;;;;;5007690;28;20192;-79
2023/01/03 05:00:13;;;;;;;55.83;28.33;;;4.00;85.60;;;;;;5006968;28;20189;-79
2023/01/03 05:02:39;;;;;;;56.50;29.03;;;3.90;85.50;;;;;;5007051;28;20247;-79
2023/01/03 05:05:06;;;;;;;53.77;27.67;;;3.90;85.60;;;;;;5002294;28;20181;-79
2023/01/03 05:07:31;;;;;;;51.70;25.00;;;3.90;85.10;;;;;;5006669;28;20242;-78
2023/01/03 05:09:57;;;;;;;47.97;24.90;;;3.80;85.30;;;;;;5006307;28;20830;-79
2023/01/03 05:12:23;;;;;;;44.27;22.73;;;3.80;85.30;;;;;;5007104;28;20288;-79
2023/01/03 05:14:49;;;;;;;49.77;24.30;;;3.70;85.40;;;;;;5005837;28;20177;-79
2023/01/03 05:17:16;;;;;;;51.27;24.40;;;3.70;85.60;;;;;;5004072;28;20251;-79
2023/01/03 05:27:56;;;;;;;43.83;22.03;;;3.60;85.70;;;;;;5002623;28;20193;-79
2023/01/03 05:30:22;;;;;;;43.90;21.67;;;3.50;85.70;;;;;;5007325;28;20267;-79
2023/01/03 05:32:47;;;;;;;46.20;22.57;;;3.50;85.80;;;;;;5004496;28;20189;-78
2023/01/03 05:35:13;;;;;;;46.87;22.43;;;3.50;86.10;;;;;;5000864;28;20200;-78
2023/01/03 05:37:39;;;;;;;49.93;21.67;;;3.50;86.00;;;;;;5004896;28;20185;-78
2023/01/03 05:40:05;;;;;;;55.23;22.40;;;3.50;86.40;;;;;;5006491;28;20217;-78
2023/01/03 05:42:31;;;;;;;45.23;22.20;;;3.50;86.40;;;;;;5006043;28;20219;-77
2023/01/03 05:44:56;;;;;;;40.23;20.23;;;3.40;86.20;;;;;;5004494;28;20180;-78
2023/01/03 05:47:22;;;;;;;43.50;22.17;;;3.40;86.00;;;;;;5007159;28;20188;-77
2023/01/03 05:49:48;;;;;;;44.10;20.27;;;3.40;86.20;;;;;;5004562;28;20680;-78
2023/01/03 05:52:13;;;;;;;36.60;19.67;;;3.40;86.40;;;;;;5004608;28;20192;-77
2023/01/03 05:54:39;;;;;;;39.30;18.87;;;3.40;86.40;;;;;;5001164;28;20670;-78
2023/01/03 05:57:05;;;;;;;39.63;19.40;;;3.40;86.30;;;;;;5012165;28;20239;-83
2023/01/03 05:59:30;;;;;;;51.00;22.37;;;3.40;86.20;;;;;;5009641;28;20235;-81
2023/01/03 06:01:56;;;;;;;40.83;19.93;;;3.40;86.40;;;;;;5012161;28;20936;-81
2023/01/03 06:04:22;;;;;;;35.97;20.50;;;3.40;86.40;;;;;;5004778;28;20248;-81
2023/01/03 06:06:47;;;;;;;30.03;17.87;;;3.40;86.60;;;;;;5004989;28;20213;-81
2023/01/03 06:09:13;;;;;;;40.50;18.60;;;3.40;86.60;;;;;;5005001;28;20185;-81
2023/01/03 06:11:40;;;;;;;44.27;19.33;;;3.40;86.70;;;;;;5004386;28;20173;-84
2023/01/03 06:14:06;;;;;;;29.13;17.90;;;3.40;86.70;;;;;;5002630;28;20570;-77
2023/01/03 06:19:15;;;;;;;36.00;20.17;;;3.40;86.70;;;;;;5004438;28;20720;-76
2023/01/03 06:21:41;;;;;;;38.43;18.77;;;3.40;86.80;;;;;;5002173;28;20169;-76
2023/01/03 06:24:07;;;;;;;34.93;20.37;;;3.40;86.90;;;;;;5005415;28;20720;-78
2023/01/03 06:26:33;;;;;;;47.07;21.17;;;3.40;86.60;;;;;;5004216;28;20189;-78
2023/01/03 06:28:59;;;;;;;39.13;21.17;;;3.40;87.00;;;;;;4992594;28;20539;-72
2023/01/03 06:31:25;;;;;;;34.77;17.60;;;3.50;87.10;;;;;;5002038;28;20193;-79
2023/01/03 06:33:50;;;;;;;45.73;22.57;;;3.50;87.10;;;;;;5003809;28;20189;-77
2023/01/03 06:36:19;;;;;;;33.90;20.37;;;3.50;86.90;;;;;;5005275;28;20690;-79
2023/01/03 06:38:45;;;;;;;46.23;21.83;;;3.60;86.90;;;;;;5006106;28;20181;-80
2023/01/03 06:41:12;;;;;;;39.50;21.53;;;3.70;87.50;;;;;;5003714;28;20189;-76
2023/01/03 06:43:38;;;;;;;49.77;23.83;;;3.80;88.20;;;;;;4999452;28;20212;-77
2023/01/03 06:54:28;;;;;;;34.87;19.83;;;4.10;88.10;;;;;;5002096;28;20261;-76
2023/01/03 06:56:54;;;;;;;43.87;21.53;;;4.20;87.70;;;;;;4998581;28;20185;-76
2023/01/03 06:59:21;;;;;;;40.67;21.70;;;4.20;87.60;;;;;;5004261;28;20216;-76
2023/01/03 07:01:48;;;;;;;49.33;22.33;;;4.30;87.30;;;;;;4992078;28;20200;-76
2023/01/03 07:04:14;;;;;;;34.93;20.00;;;4.30;87.30;;;;;;5005087;28;20262;-76
2023/01/03 07:06:40;;;;;;;36.30;19.97;;;4.40;87.70;;;;;;5002682;28;20186;-76
2023/01/03 07:09:06;;;;;;;48.17;21.53;;;4.60;88.10;;;;;;4995568;28;20181;-77
2023/01/03 07:11:33;;;;;;;47.50;21.60;;;4.70;88.30;;;;;;5005808;28;20235;-76
2023/01/03 07:13:58;;;;;;;42.20;21.57;;;4.90;88.50;;;;;;5006532;28;20189;-76
2023/01/03 07:16:27;;;;;;;51.57;24.33;;;5.20;88.40;;;;;;5001304;28;20654;-76
2023/01/03 07:18:53;;;;;;;44.10;22.60;;;5.40;88.20;;;;;;4996286;28;20626;-76
2023/01/03 07:21:20;;;;;;;44.20;24.97;;;5.70;87.80;;;;;;5003925;28;20173;-76
2023/01/03 07:23:45;;;;;;;49.67;25.17;;;5.80;87.70;;;;;;5004273;28;20323;-76
2023/01/03 07:26:11;;;;;;;39.60;22.60;;;6.00;87.40;;;;;;5004061;28;20801;-76
2023/01/03 07:28:37;;;;;;;47.37;25.33;;;6.30;87.20;;;;;;5004954;28;20231;-76
2023/01/03 07:31:06;;;;;;;45.20;23.37;;;6.60;87.00;;;;;;5000764;28;20184;-77
2023/01/03 07:33:33;;;;;;;55.37;25.63;;;7.00;87.10;;;;;;4971142;28;20260;-77
2023/01/03 07:36:03;;;;;;;44.37;27.43;;;7.30;86.70;;;;;;5007430;28;20264;-77
2023/01/03 07:38:29;;;;;;;52.37;27.20;;;7.70;85.90;;;;;;5007835;28;20181;-77
2023/01/03 07:40:56;;;;;;;51.77;29.00;;;8.00;84.20;;;;;;5004384;28;20200;-77
2023/01/03 07:43:37;;;;;;;60.60;28.60;;;8.40;83.40;;;;;;5000905;28;20205;-77
2023/01/03 07:46:19;;;;;;;60.83;30.67;;;8.70;83.00;;;;;;5008981;28;20177;-76
2023/01/03 07:48:47;;;;;;;59.83;30.77;;;9.10;81.90;;;;;;5005842;28;20216;-76
2023/01/03 07:51:14;;;;;;;66.47;32.70;;;9.50;81.90;;;;;;4998021;28;20180;-76
2023/01/03 07:53:40;;;;;;;66.87;30.97;;;9.90;80.50;;;;;;5008232;28;20674;-76
2023/01/03 07:56:07;;;;;;;72.20;33.57;;;10.30;80.70;;;;;;5008420;28;20971;-77
2023/01/03 07:58:35;;;;;;;65.90;34.77;;;10.80;80.00;;;;;;5008490;28;20192;-77
2023/01/03 08:01:08;;;;;;;76.38;34.70;;;11.20;78.70;;;;;;5006984;28;20188;-77
2023/01/03 08:03:35;;;;;;;71.57;35.97;;;11.70;77.40;;;;;;5008187;28;20726;-77
2023/01/03 08:06:10;;;;;;;68.40;36.03;;;12.10;75.00;;;;;;5008531;28;20185;-77
2023/01/03 08:08:36;;;;;;;81.20;37.15;;;12.50;74.80;;;;;;5008509;28;20203;-77
2023/01/03 08:13:46;;;;;;;76.03;38.25;;;13.20;71.20;;;;;;4997932;28;20259;-78
2023/01/03 08:16:15;;;;;;;73.93;38.55;;;13.50;71.70;;;;;;5010068;28;20181;-76
2023/01/03 08:18:42;;;;;;;77.65;38.72;;;13.90;71.00;;;;;;5018853;28;20212;-78
2023/01/03 08:21:11;;;;;;;79.30;38.63;;;14.30;70.70;;;;;;4995429;28;20633;-78
2023/01/03 08:23:38;;;;;;;84.22;39.97;;;14.50;69.00;;;;;;5008133;28;20219;-78
2023/01/03 08:26:13;;;;;;;83.88;40.10;;;14.90;69.50;;;;;;5008107;28;20185;-77
2023/01/03 08:28:40;;;;;;;79.95;38.58;;;15.30;69.00;;;;;;5008068;28;20176;-77
2023/01/03 08:31:18;;;;;;;73.60;37.50;;;15.60;69.00;;;;;;5008249;28;20182;-77
2023/01/03 08:33:52;;;;;;;67.97;38.42;;;16.10;67.70;;;;;;5007062;28;20165;-77
2023/01/03 08:36:18;;;;;;;74.15;39.28;;;16.50;67.00;;;;;;5005673;28;20189;-77
2023/01/03 08:38:59;;;;;;;70.40;40.25;;;16.80;65.40;;;;;;5009121;28;20477;-77
2023/01/03 08:41:29;;;;;;;81.43;42.05;;;17.20;65.60;;;;;;4997150;28;20275;-77
2023/01/03 08:43:59;;;;;;;94.72;42.30;;;17.50;64.00;;;;;;5004656;28;20710;-80
2023/01/03 08:46:26;;;;;;;76.07;39.50;;;17.80;63.40;;;;;;5002058;28;20204;-76
2023/01/03 08:48:53;;;;;;;73.53;41.28;;;18.10;62.90;;;;;;5000870;28;20181;-76
2023/01/03 08:51:19;;;;;;;73.38;40.13;;;18.50;62.90;;;;;;5006904;28;20181;-77
2023/01/03 08:53:45;;;;;;;74.22;42.10;;;18.70;61.00;;;;;;5010900;28;20237;-80
2023/01/03 08:56:11;;;;;;;79.15;44.35;;;18.90;60.70;;;;;;5011655;28;20678;-77
2023/01/03 08:58:37;;;;;;;73.43;41.20;;;18.90;59.30;;;;;;5019044;28;20196;-77
2023/01/03 09:01:03;;;;;;;82.30;41.63;;;18.90;59.70;;;;;;5004935;28;20208;-77
2023/01/03 09:03:29;;;;;;;77.25;43.13;;;18.80;57.30;;;;;;4995980;28;20643;-78
2023/01/03 09:05:59;;;;;;;78.03;43.65;;;18.80;59.40;;;;;;5003899;28;20196;-77
2023/01/03 09:08:24;;;;;;;79.93;44.53;;;19.00;58.20;;;;;;4982797;28;20280;-78
2023/01/03 09:10:50;;;;;;;79.95;43.97;;;19.10;58.30;;;;;;5001745;28;20173;-77
2023/01/03 09:13:16;;;;;;;76.88;43.85;;;19.20;58.30;;;;;;5005772;28;20323;-77
2023/01/03 09:15:41;;;;;;;82.05;44.65;;;19.30;57.50;;;;;;4995878;28;20590;-78
2023/01/03 09:18:07;;;;;;;77.63;44.50;;;19.50;58.30;;;;;;5007681;28;20195;-77
2023/01/03 09:20:33;;;;;;;73.55;42.08;;;19.80;58.20;;;;;;4989028;28;20235;-77
2023/01/03 09:22:59;;;;;;;93.00;47.42;;;20.20;57.40;;;;;;5014668;28;20308;-77
2023/01/03 09:25:24;;;;;;;86.00;45.78;;;20.50;56.70;;;;;;5005995;28;20177;-76
2023/01/03 09:27:50;;;;;;;90.60;49.88;;;20.70;54.80;;;;;;5004572;28;20862;-77
2023/01/03 09:30:16;;;;;;;81.38;45.50;;;20.70;52.40;;;;;;4999604;28;20180;-76
2023/01/03 09:32:42;;;;;;;86.03;45.80;;;20.70;55.70;;;;;;5007701;28;20177;-78
2023/01/03 09:35:08;;;;;;;75.13;45.92;;;20.90;55.70;;;;;;5006970;28;20181;-78
2023/01/03 09:37:34;;;;;;;75.90;45.28;;;21.10;55.60;;;;;;5004038;28;20169;-78
2023/01/03 09:40:00;;;;;;;71.72;45.40;;;21.40;55.60;;;;;;4996233;28;20199;-78
2023/01/03 09:45:28;;;;;;;74.85;44.33;;;21.80;54.80;;;;;;5005823;28;20739;-77
2023/01/03 09:47:55;;;;;;;76.68;44.85;;;22.20;54.40;;;;;;5001533;28;20185;-76
2023/01/03 09:50:23;;;;;;;75.75;43.83;;;22.40;53.20;;;;;;5006297;28;20192;-76
2023/01/03 10:04:33;;;;;;;104.90;55.13;;;23.10;53.40;;;;;;5005421;28;20211;-77
2023/01/03 10:07:35;;;;;;;108.60;56.08;;;23.40;53.40;;;;;;5012984;28;20173;-79
2023/01/03 10:10:29;;;;;;;112.25;60.90;;;23.60;51.90;;;;;;5004852;28;20183;-79
2023/01/03 10:13:08;;;;;;;105.78;57.50;;;23.60;51.50;;;;;;5005954;28;20267;-78
2023/01/03 10:15:51;;;;;;;121.40;62.63;;;23.80;51.80;;;;;;5007656;28;20173;-78
2023/01/03 10:18:17;;;;;;;120.53;62.20;;;23.70;51.70;;;;;;5002619;28;20274;-77
2023/01/03 10:20:55;;;;;;;132.95;65.15;;;23.60;51.00;;;;;;5017011;28;20185;-77
2023/01/03 10:23:21;;;;;;;118.28;60.25;;;23.50;50.20;;;;;;5000317;28;20295;-78
2023/01/03 10:25:47;;;;;;;120.75;63.60;;;23.40;51.80;;;;;;5000965;28;20272;-77
2023/01/03 10:28:23;;;;;;;121.80;62.78;;;23.40;51.30;;;;;;5005738;28;20185;-77
2023/01/03 10:30:56;;;;;;;111.75;58.38;;;23.50;52.50;;;;;;5004536;28;20615;-77
2023/01/03 10:33:49;;;;;;;102.68;55.50;;;23.60;51.80;;;;;;5005828;28;20798;-76
2023/01/03 10:36:17;;;;;;;103.78;55.53;;;23.70;49.50;;;;;;4994844;28;20291;-76
2023/01/03 10:38:45;;;;;;;104.35;57.33;;;23.80;51.00;;;;;;5002200;28;20195;-76
2023/01/03 10:41:22;;;;;;;103.18;54.33;;;23.90;51.00;;;;;;5001334;28;20192;-79
2023/01/03 10:44:02;;;;;;;97.63;52.42;;;24.00;50.80;;;;;;5001027;28;20220;-78
2023/01/03 10:46:29;;;;;;;96.40;54.70;;;24.10;49.10;;;;;;5009940;28;20326;-78
2023/01/03 10:49:10;;;;;;;91.20;51.13;;;23.90;49.20;;;;;;5004944;28;20220;-78
2023/01/03 10:51:42;;;;;;;83.72;48.40;;;23.80;50.60;;;;;;5002483;28;20201;-78
2023/01/03 10:54:18;;;;;;;88.88;49.25;;;23.70;51.50;;;;;;4997237;28;20213;-77
2023/01/03 10:56:45;;;;;;;86.28;48.75;;;23.80;51.30;;;;;;4999179;28;20199;-77
2023/01/03 10:59:23;;;;;;;82.18;47.65;;;23.60;50.40;;;;;;5003027;28;20192;-77
2023/01/03 11:02:17;;;;;;;79.38;46.75;;;23.40;51.10;;;;;;5003195;28;20203;-77
2023/01/03 11:04:43;;;;;;;79.43;46.63;;;23.40;50.70;;;;;;5001324;28;20222;-77
2023/01/03 11:07:11;;;;;;;77.93;47.38;;;23.50;51.60;;;;;;5005709;28;20881;-77
2023/01/03 11:09:46;;;;;;;93.07;48.97;;;23.50;50.30;;;;;;5013228;28;20185;-77
2023/01/03 11:12:17;;;;;;;81.95;47.20;;;23.60;49.40;;;;;;5012090;28;20198;-77
2023/01/03 11:14:56;;;;;;;94.90;51.92;;;23.80;51.40;;;;;;5008294;28;20705;-77
2023/01/03 11:17:25;;;;;;;91.47;51.22;;;23.90;51.30;;;;;;5005065;28;20188;-77
2023/01/03 11:19:52;;;;;;;84.38;46.75;;;24.00;50.30;;;;;;5010900;28;20267;-77
2023/01/03 11:22:42;;;;;;;87.68;48.80;;;24.00;50.30;;;;;;5010544;28;20239;-76
2023/01/03 11:25:45;;;;;;;77.75;46.03;;;23.80;51.10;;;;;;5009577;28;20192;-77
2023/01/03 11:28:32;;;;;;;82.93;44.70;;;23.80;50.60;;;;;;5014818;28;20176;-77
2023/01/03 11:30:58;;;;;;;86.00;46.78;;;23.50;51.80;;;;;;5013513;28;20258;-77
2023/01/03 11:33:45;;;;;;;82.47;46.35;;;23.50;50.60;;;;;;5013075;28;20771;-76
2023/01/03 11:36:28;;;;;;;71.30;43.40;;;23.60;51.40;;;;;;5008721;28;20219;-77
2023/01/03 11:39:12;;;;;;;80.05;45.15;;;23.60;51.10;;;;;;5010246;28;20227;-77
2023/01/03 11:42:16;;;;;;;75.53;42.92;;;23.40;51.60;;;;;;4999482;28;20265;-77
2023/01/03 11:45:10;;;;;;;77.15;46.00;;;23.30;50.40;;;;;;4999819;28;20188;-76
2023/01/03 11:47:41;;;;;;;76.45;42.22;;;22.90;49.80;;;;;;5021805;28;20184;-78
2023/01/03 11:50:35;;;;;;;85.32;45.13;;;22.70;52.20;;;;;;5013938;28;20189;-78
2023/01/03 11:53:03;;;;;;;68.95;42.50;;;22.90;51.80;;;;;;5005561;28;20227;-77
2023/01/03 11:55:48;;;;;;;78.88;45.20;;;22.90;50.50;;;;;;5008914;28;20185;-78
2023/01/03 11:58:26;;;;;;;71.75;41.63;;;23.00;50.10;;;;;;4993226;28;20192;-78
2023/01/03 12:01:33;;;;;;;71.10;41.75;;;23.10;52.10;;;;;;4984285;28;20180;-79
2023/01/03 12:04:26;;;;;;;78.25;42.53;;;23.30;51.30;;;;;;4998996;28;20315;-77
2023/01/03 12:06:58;;;;;;;75.32;43.35;;;23.20;51.00;;;;;;5010602;28;20181;-76
2023/01/03 12:09:26;;;;;;;68.88;42.00;;;23.00;50.30;;;;;;5010738;28;20188;-76
2023/01/03 12:12:09;;;;;;;77.13;44.40;;;23.00;52.40;;;;;;5013699;28;20243;-76
2023/01/03 12:14:43;;;;;;;71.25;43.05;;;23.10;52.90;;;;;;5009654;28;20219;-76
2023/01/03 12:17:12;;;;;;;74.03;43.35;;;23.30;51.70;;;;;;5008030;28;20823;-77
2023/01/03 12:19:42;;;;;;;76.38;41.88;;;23.50;51.50;;;;;;5009923;28;20807;-77
2023/01/03 12:22:24;;;;;;;74.72;42.95;;;23.60;51.80;;;;;;5006880;28;20239;-77
2023/01/03 12:25:23;;;;;;;71.78;42.20;;;23.60;49.70;;;;;;5009870;28;20188;-77
2023/01/03 12:27:59;;;;;;;69.78;40.95;;;23.40;50.70;;;;;;5009278;28;20212;-77
2023/01/03 12:30:25;;;;;;;68.78;40.42;;;23.20;50.30;;;;;;5006044;28;20666;-77
2023/01/03 12:33:06;;;;;;;66.85;41.03;;;23.10;52.50;;;;;;4997075;28;20282;-75
2023/01/03 12:35:48;;;;;;;76.05;42.95;;;23.10;50.50;;;;;;5011884;28;20177;-77
2023/01/03 12:38:17;;;;;;;74.05;42.15;;;23.10;51.00;;;;;;5005526;28;20197;-77
2023/01/03 12:40:54;;;;;;;68.00;41.83;;;23.10;50.30;;;;;;5001901;28;20289;-77
2023/01/03 12:43:34;;;;;;;71.63;40.78;;;23.10;51.10;;;;;;5003836;28;20702;-77
2023/01/03 12:46:21;;;;;;;74.32;41.10;;;23.00;50.80;;;;;;5003793;28;20192;-76
2023/01/03 12:49:15;;;;;;;76.63;42.88;;;23.10;51.00;;;;;;5003256;28;20664;-76
2023/01/03 12:51:41;;;;;;;75.35;41.97;;;23.00;50.70;;;;;;4922021;29;20203;-76
2023/01/03 12:54:21;;;;;;;76.97;43.75;;;23.00;51.60;;;;;;4924394;29;20211;-76
2023/01/03 12:57:05;;;;;;;73.90;43.60;;;23.00;52.20;;;;;;4925522;29;20598;-77
2023/01/03 12:59:35;;;;;;;74.45;44.20;;;23.00;51.00;;;;;;4928333;29;20191;-77
2023/01/03 13:02:22;;;;;;;88.75;45.88;;;23.10;50.80;;;;;;4937427;29;20199;-78
2023/01/03 13:04:52;;;;;;;86.07;44.92;;;23.10;50.70;;;;;;4933046;29;20207;-77
2023/01/03 13:07:24;;;;;;;80.90;46.75;;;23.10;50.60;;;;;;4920773;29;20187;-78
2023/01/03 13:09:58;;;;;;;78.28;46.53;;;23.20;50.80;;;;;;4927632;29;20286;-77
2023/01/03 13:12:27;;;;;;;73.75;45.67;;;23.20;50.40;;;;;;4928317;29;20206;-76
2023/01/03 13:15:02;;;;;;;84.75;46.92;;;23.20;51.00;;;;;;4931557;29;20192;-76
2023/01/03 13:17:30;;;;;;;81.55;46.78;;;23.10;50.80;;;;;;4925362;29;20188;-77
2023/01/03 13:19:56;;;;;;;75.45;44.80;;;23.10;51.30;;;;;;4924629;29;20607;-77
2023/01/03 13:22:48;;;;;;;75.55;45.05;;;23.20;51.40;;;;;;4924823;29;20816;-77
2023/01/03 13:25:25;;;;;;;84.43;48.22;;;23.20;51.10;;;;;;4927833;29;20195;-77
2023/01/03 13:27:53;;;;;;;86.07;48.63;;;23.20;50.80;;;;;;4938072;28;20188;-77
2023/01/03 13:30:33;;;;;;;82.07;47.70;;;23.10;51.20;;;;;;5004430;28;20203;-75
2023/01/03 13:33:11;;;;;;;77.70;46.85;;;23.20;51.20;;;;;;5003027;28;20184;-77
2023/01/03 13:35:45;;;;;;;78.40;46.90;;;23.10;52.10;;;;;;5005032;28;20705;-77
2023/01/03 13:38:34;;;;;;;64.50;39.80;;;23.20;53.00;;;;;;5004635;28;20200;-77
2023/01/03 13:41:03;;;;;;;34.83;22.27;;;23.10;51.40;;;;;;5016991;28;20182;-77
2023/01/03 13:43:36;;;;;;;43.67;24.27;;;23.20;51.30;;;;;;5005797;28;20208;-78
2023/01/03 13:46:30;;;;;;;24.67;16.00;;;23.10;52.20;;;;;;4992807;28;20184;-76
2023/01/03 13:49:06;;;;;;;13.77;9.90;;;23.00;51.70;;;;;;5004432;28;20764;-75
2023/01/03 13:51:47;;;;;;;9.55;8.15;;;22.90;51.80;;;;;;5009157;28;20855;-76